Portada
METAR-TAF:

METAR-TAF

Aeroports :

Amman-Queen Alia, Jordània

latitud: 31-40N, longitud: 035-58E, altitud: 721 m

Observació

L'informe es va fer fa 25 minuts, a les 10:00 UTC
Vent 14 kt del Oest
Temperatura 31°C
Humitat 27%
Pressió 1012 hPa
Visibilitat: 5000 m
calitja

METAR: OJAI 091000Z 28014KT 5000 HZ NSC 31/10 Q1012 NOSIG

Hora: 13:25 (10:25 UTC)

Pronòstic

L'informe es va fer fa 5 hores i 39 minuts, a les 04:46 UTC
Pronòstic vàlid del 09 a les 06 UTC al 10 a les 12 UTC
Vent 10 kt del Oest
Visibilitat: 5000 m
calitja
Probabilitat 30% :
Temporalment
l' 09 a les 11 UTC al 09 a les 17 UTC
Vent 16 kt del Oest
Visibilitat: 4000 m
torb alta de pols

TAF: OJAI 090446Z 0906/1012 27010KT 5000 HZ NSC PROB30 TEMPO 0911/0917 28016KT 4000 BLDU

Observacions i pronòstics meteorològics de més de 4000 aeroports (METAR i TAF).

Les estacions disponibles són els punts grocs i vermells al mapa.

Posi el ratolí al punt desitjat per veure el nom de l'estació.

Feu clic per veure les observacions i els pronòstics meteorològics.

Per canviar el mapa: feu clic els botons verds amb una creu de color negre per apropar; al botó verd amb un guió per allunyar la imatge; o en les fletxes verdes per a mapes adjacents.


METAR-TAF: